Time;durP1;ratioP1;P1;durP2;ratioP2;P2;SDS_P1;SDS_P2;PMS_P1;PMS_P2;Temp;Humidity;BMP_temperature;BMP_pressure;BME280_temperature;BME280_humidity;BME280_pressure;Samples;Min_cycle;Max_cycle;Signal;HPM_P1;HPM_P2
2021/12/26 00:02:12;;;;;;;1.52;1.42;;;5.20;99.90;;;;;;5004823;28;20733;-73
2021/12/26 00:04:43;;;;;;;2.13;1.38;;;5.10;99.90;;;;;;5002714;28;20285;-71
2021/12/26 00:07:16;;;;;;;1.23;1.13;;;5.00;99.90;;;;;;5009071;28;20220;-72
2021/12/26 00:09:47;;;;;;;1.50;1.40;;;5.00;99.90;;;;;;5007979;28;20211;-70
2021/12/26 00:12:18;;;;;;;1.25;1.25;;;5.00;99.90;;;;;;5004384;28;20222;-68
2021/12/26 00:14:49;;;;;;;1.60;1.50;;;5.00;99.90;;;;;;5004754;28;20227;-71
2021/12/26 00:17:27;;;;;;;1.33;1.23;;;5.10;99.90;;;;;;5001528;28;20231;-72
2021/12/26 00:20:00;;;;;;;2.17;2.08;;;5.20;99.90;;;;;;5003188;28;20226;-70
2021/12/26 00:22:33;;;;;;;2.67;1.63;;;5.10;99.90;;;;;;5001403;28;20235;-71
2021/12/26 00:25:07;;;;;;;2.75;1.90;;;5.20;99.90;;;;;;5007096;28;20269;-71
2021/12/26 00:27:48;;;;;;;2.20;1.92;;;5.20;99.90;;;;;;5009368;28;20223;-72
2021/12/26 00:30:37;;;;;;;1.60;1.50;;;5.10;99.90;;;;;;5006109;28;20214;-72
2021/12/26 00:33:15;;;;;;;1.77;1.20;;;5.00;99.90;;;;;;5005024;28;20215;-72
2021/12/26 00:35:54;;;;;;;0.90;0.90;;;4.90;99.90;;;;;;5000324;28;20229;-72
2021/12/26 00:38:27;;;;;;;2.47;1.95;;;4.90;99.90;;;;;;5005349;28;20682;-72
2021/12/26 00:41:07;;;;;;;1.80;1.70;;;4.90;99.90;;;;;;5006046;28;20235;-71
2021/12/26 00:44:00;;;;;;;1.80;1.70;;;4.90;99.90;;;;;;5000129;28;20215;-72
2021/12/26 00:46:40;;;;;;;2.28;2.03;;;4.90;99.90;;;;;;5007198;28;20570;-69
2021/12/26 00:49:16;;;;;;;1.63;1.52;;;4.90;99.90;;;;;;5007499;28;20757;-72
2021/12/26 00:51:50;;;;;;;2.33;1.27;;;4.90;99.90;;;;;;4999055;28;20753;-72
2021/12/26 00:54:28;;;;;;;1.27;1.20;;;4.80;99.90;;;;;;5002745;28;20657;-71
2021/12/26 00:57:03;;;;;;;1.38;1.27;;;4.80;99.90;;;;;;5002491;28;20634;-69
2021/12/26 00:59:37;;;;;;;2.28;1.35;;;4.90;99.90;;;;;;5007427;28;20230;-69
2021/12/26 01:02:26;;;;;;;2.15;1.60;;;4.90;99.90;;;;;;5006242;28;20309;-69
2021/12/26 01:05:26;;;;;;;2.05;1.60;;;4.80;99.90;;;;;;5003629;28;20226;-71
2021/12/26 01:08:20;;;;;;;1.85;1.75;;;4.70;99.90;;;;;;5001627;28;20582;-69
2021/12/26 01:11:23;;;;;;;1.40;1.30;;;4.70;99.90;;;;;;5002576;28;20258;-71
2021/12/26 01:17:25;;;;;;;1.40;1.02;;;4.60;99.90;;;;;;4944621;29;20217;-71
2021/12/26 01:20:02;;;;;;;1.50;1.35;;;4.60;99.90;;;;;;4944595;28;20594;-70
2021/12/26 01:22:37;;;;;;;2.33;2.00;;;4.50;99.90;;;;;;4944543;29;20237;-71
2021/12/26 01:25:10;;;;;;;2.80;2.55;;;4.50;99.90;;;;;;4924277;29;20669;-71
2021/12/26 01:27:46;;;;;;;2.03;1.92;;;4.50;99.90;;;;;;4928961;29;20250;-71
2021/12/26 01:30:17;;;;;;;2.78;2.30;;;4.50;99.90;;;;;;4922276;29;20243;-71
2021/12/26 01:32:54;;;;;;;2.13;1.95;;;4.50;99.90;;;;;;4922204;29;20216;-72
2021/12/26 01:35:28;;;;;;;2.00;1.90;;;4.60;99.90;;;;;;4923546;29;20224;-71
2021/12/26 01:38:06;;;;;;;1.85;1.75;;;4.50;99.90;;;;;;4924269;29;20230;-72
2021/12/26 01:40:40;;;;;;;2.38;2.17;;;4.50;99.90;;;;;;4929428;29;20260;-73
2021/12/26 01:43:14;;;;;;;1.85;1.75;;;4.40;99.90;;;;;;4920402;29;20412;-72
2021/12/26 01:45:48;;;;;;;2.40;2.20;;;4.40;99.90;;;;;;4915632;29;20227;-71
2021/12/26 01:48:20;;;;;;;0.98;0.95;;;4.40;99.90;;;;;;4955768;28;20576;-70
2021/12/26 01:50:53;;;;;;;1.63;1.35;;;4.40;99.90;;;;;;4985068;28;20223;-74
2021/12/26 01:53:36;;;;;;;1.38;1.27;;;4.30;99.90;;;;;;4982810;28;20227;-70
2021/12/26 01:56:16;;;;;;;1.08;1.00;;;4.30;99.90;;;;;;4984738;28;20721;-73
2021/12/26 01:58:50;;;;;;;1.75;1.63;;;4.30;99.90;;;;;;4987820;28;20304;-71
2021/12/26 02:01:24;;;;;;;2.08;1.50;;;4.20;99.90;;;;;;4986886;28;20225;-72
2021/12/26 02:04:06;;;;;;;1.40;1.30;;;4.10;99.90;;;;;;4981413;28;20240;-70
2021/12/26 02:06:51;;;;;;;1.48;1.38;;;4.10;99.90;;;;;;4991089;28;20735;-75
2021/12/26 02:09:40;;;;;;;1.73;1.60;;;4.10;99.90;;;;;;4989755;28;20227;-76
2021/12/26 02:12:42;;;;;;;1.85;1.60;;;4.20;99.90;;;;;;4983694;28;20279;-74
2021/12/26 02:16:14;;;;;;;1.42;1.20;;;4.20;99.90;;;;;;4984024;28;20393;-75
2021/12/26 02:22:57;;;;;;;1.77;1.67;;;4.20;99.90;;;;;;4981296;28;20274;-74
2021/12/26 02:32:20;;;;;;;3.95;3.55;;;4.30;99.90;;;;;;4999203;28;20369;-72
2021/12/26 02:35:03;;;;;;;2.95;2.70;;;4.40;99.90;;;;;;5004852;28;20223;-75
2021/12/26 02:45:24;;;;;;;3.58;2.65;;;4.50;99.90;;;;;;4975428;28;20352;-75
2021/12/26 03:05:42;;;;;;;3.15;2.35;;;4.40;99.90;;;;;;4880996;29;20678;-72
2021/12/26 03:08:34;;;;;;;2.78;2.58;;;4.40;99.90;;;;;;4977456;28;20223;-73
2021/12/26 03:11:17;;;;;;;3.40;2.38;;;4.50;99.90;;;;;;5009326;28;20219;-72
2021/12/26 03:14:02;;;;;;;2.70;2.22;;;4.50;99.90;;;;;;5003213;28;20223;-74
2021/12/26 03:16:46;;;;;;;3.17;2.47;;;4.40;99.90;;;;;;5007906;28;20314;-71
2021/12/26 03:19:18;;;;;;;3.30;2.75;;;4.40;99.90;;;;;;5008252;28;20233;-71
2021/12/26 03:21:53;;;;;;;2.75;2.08;;;4.40;99.90;;;;;;5002404;28;20238;-67
2021/12/26 03:24:24;;;;;;;3.60;3.40;;;4.40;99.90;;;;;;5002752;28;20245;-67
2021/12/26 03:27:00;;;;;;;3.65;3.35;;;4.50;99.90;;;;;;5008414;28;20590;-68
2021/12/26 03:29:33;;;;;;;2.42;2.33;;;4.60;99.90;;;;;;5006503;28;20219;-67
2021/12/26 03:32:08;;;;;;;2.65;2.45;;;4.70;99.90;;;;;;5007292;28;20215;-68
2021/12/26 03:34:50;;;;;;;3.78;3.47;;;4.60;99.90;;;;;;5004067;28;20579;-68
2021/12/26 03:37:23;;;;;;;1.70;1.58;;;4.50;99.90;;;;;;5007145;28;20242;-68
2021/12/26 03:39:54;;;;;;;2.38;2.17;;;4.40;99.90;;;;;;5003295;28;20682;-68
2021/12/26 03:42:24;;;;;;;2.90;2.20;;;4.40;99.90;;;;;;5008262;28;20238;-69
2021/12/26 03:48:02;;;;;;;1.75;1.65;;;4.40;99.90;;;;;;4957159;28;20694;-69
2021/12/26 03:57:10;;;;;;;3.03;2.75;;;4.50;99.90;;;;;;4964997;28;20224;-68
2021/12/26 03:59:41;;;;;;;1.83;1.60;;;4.50;99.90;;;;;;5004940;28;20219;-68
2021/12/26 04:02:15;;;;;;;2.20;2.00;;;4.50;99.90;;;;;;5004965;28;20222;-69
2021/12/26 04:04:46;;;;;;;1.77;1.58;;;4.30;99.90;;;;;;5004588;28;20223;-69
2021/12/26 04:07:17;;;;;;;2.15;1.80;;;4.30;99.90;;;;;;5006530;28;20596;-66
2021/12/26 04:09:50;;;;;;;2.45;1.92;;;4.30;99.90;;;;;;5007062;28;20708;-68
2021/12/26 04:12:21;;;;;;;2.00;1.90;;;4.20;99.90;;;;;;5009886;28;20234;-66
2021/12/26 04:14:51;;;;;;;3.15;2.90;;;4.20;99.90;;;;;;5006721;28;20683;-66
2021/12/26 04:17:22;;;;;;;3.67;3.38;;;4.30;99.90;;;;;;5006956;28;20303;-66
2021/12/26 04:19:53;;;;;;;4.20;2.95;;;4.20;99.90;;;;;;5007069;28;20591;-66
2021/12/26 04:22:24;;;;;;;2.40;2.30;;;4.10;99.90;;;;;;5007318;28;20234;-67
2021/12/26 04:24:57;;;;;;;3.60;2.40;;;4.10;99.90;;;;;;4996690;28;20280;-68
2021/12/26 04:27:28;;;;;;;2.85;2.65;;;4.10;99.90;;;;;;4992722;28;20223;-68
2021/12/26 04:29:59;;;;;;;4.10;2.60;;;4.10;99.90;;;;;;4992684;28;20219;-68
2021/12/26 04:32:33;;;;;;;2.60;2.40;;;4.20;99.90;;;;;;4998979;28;20292;-68
2021/12/26 04:35:04;;;;;;;4.38;3.78;;;4.20;99.90;;;;;;4994607;28;20211;-67
2021/12/26 04:37:35;;;;;;;3.13;2.80;;;4.20;99.90;;;;;;4997878;28;20231;-67
2021/12/26 04:40:11;;;;;;;3.67;3.38;;;4.10;99.90;;;;;;4999034;28;20216;-67
2021/12/26 04:42:44;;;;;;;4.38;4.05;;;4.10;99.90;;;;;;4996324;28;20211;-67
2021/12/26 04:45:17;;;;;;;3.78;3.38;;;3.90;99.90;;;;;;5001011;28;20299;-68
2021/12/26 04:47:49;;;;;;;2.97;2.60;;;4.10;99.90;;;;;;4991597;28;20230;-67
2021/12/26 04:50:27;;;;;;;3.08;2.67;;;4.00;99.90;;;;;;4993431;28;20220;-69
2021/12/26 04:53:15;;;;;;;3.40;3.10;;;4.00;99.90;;;;;;4988747;28;20813;-68
2021/12/26 04:55:52;;;;;;;3.65;3.17;;;4.10;99.90;;;;;;4990083;28;20222;-67
2021/12/26 04:58:23;;;;;;;3.67;2.95;;;4.10;99.90;;;;;;4995737;28;20714;-68
2021/12/26 05:00:54;;;;;;;2.42;2.25;;;4.10;99.90;;;;;;4993891;28;20219;-68
2021/12/26 05:03:26;;;;;;;3.85;3.45;;;3.90;99.90;;;;;;4997441;28;20239;-68
2021/12/26 05:05:56;;;;;;;3.30;3.00;;;3.90;99.90;;;;;;4993073;28;20240;-68
2021/12/26 05:08:40;;;;;;;5.85;3.47;;;3.90;99.90;;;;;;5008855;28;20814;-69
2021/12/26 05:15:34;;;;;;;6.80;3.50;;;3.90;99.90;;;;;;4925195;29;20249;-68
2021/12/26 05:18:44;;;;;;;3.30;2.97;;;4.00;99.90;;;;;;4988948;28;20683;-68
2021/12/26 05:21:29;;;;;;;3.50;3.20;;;3.90;99.90;;;;;;4969050;28;20220;-70
2021/12/26 05:27:24;;;;;;;4.20;3.80;;;3.70;99.90;;;;;;4997630;28;20281;-68
2021/12/26 05:30:01;;;;;;;4.30;4.00;;;3.80;99.90;;;;;;4999136;28;20250;-66
2021/12/26 05:32:34;;;;;;;4.13;3.72;;;3.80;99.90;;;;;;5002301;28;20227;-67
2021/12/26 05:35:24;;;;;;;4.43;3.17;;;3.70;99.90;;;;;;5000024;28;20203;-69
2021/12/26 05:38:12;;;;;;;2.30;2.20;;;3.70;99.90;;;;;;5012242;28;20227;-67
2021/12/26 05:44:07;;;;;;;4.03;3.28;;;3.50;99.90;;;;;;4990585;28;20239;-68
2021/12/26 05:46:38;;;;;;;4.15;3.75;;;3.60;99.90;;;;;;4995577;28;20227;-67
2021/12/26 05:49:10;;;;;;;3.05;2.55;;;3.60;99.90;;;;;;4998778;28;20215;-67
2021/12/26 05:51:42;;;;;;;3.30;3.00;;;3.60;99.90;;;;;;4997926;28;20659;-66
2021/12/26 05:54:13;;;;;;;3.22;2.92;;;3.50;99.90;;;;;;5000375;28;20215;-67
2021/12/26 05:56:44;;;;;;;2.55;2.35;;;3.50;99.90;;;;;;5000735;28;20312;-68
2021/12/26 05:59:17;;;;;;;3.90;3.00;;;3.40;99.90;;;;;;5002245;28;20220;-67
2021/12/26 06:01:48;;;;;;;3.65;3.35;;;3.40;99.90;;;;;;4985642;28;20219;-68
2021/12/26 06:04:19;;;;;;;3.50;3.20;;;3.50;99.90;;;;;;4991042;28;20392;-67
2021/12/26 06:06:49;;;;;;;2.70;2.50;;;3.50;99.90;;;;;;5003394;28;20223;-67
2021/12/26 06:09:20;;;;;;;3.45;3.15;;;3.50;99.90;;;;;;4995271;28;20220;-66
2021/12/26 06:11:51;;;;;;;4.00;3.00;;;3.50;99.90;;;;;;4996747;28;20228;-65
2021/12/26 06:14:24;;;;;;;3.85;2.85;;;3.30;99.90;;;;;;4998843;28;20223;-67
2021/12/26 06:16:54;;;;;;;2.97;2.67;;;3.30;99.90;;;;;;5004546;28;20230;-66
2021/12/26 06:19:25;;;;;;;4.70;3.63;;;3.20;99.90;;;;;;5008264;28;20228;-66
2021/12/26 06:21:56;;;;;;;3.30;3.10;;;3.20;99.90;;;;;;5008608;28;20696;-67
2021/12/26 06:24:27;;;;;;;3.03;2.38;;;3.20;99.90;;;;;;5000353;28;20291;-67
2021/12/26 06:26:58;;;;;;;4.45;3.22;;;3.30;99.90;;;;;;4995026;28;20575;-66
2021/12/26 06:29:30;;;;;;;3.65;3.25;;;3.30;99.90;;;;;;4999932;28;20277;-67
2021/12/26 06:32:01;;;;;;;3.42;3.10;;;3.20;99.90;;;;;;5004235;28;20242;-66
2021/12/26 06:34:32;;;;;;;4.93;3.28;;;3.20;99.90;;;;;;4986630;28;20250;-67
2021/12/26 06:37:03;;;;;;;3.40;3.10;;;3.20;99.90;;;;;;5003562;28;20223;-70
2021/12/26 06:39:36;;;;;;;3.00;2.80;;;3.20;99.90;;;;;;5004400;28;20219;-71
2021/12/26 06:42:07;;;;;;;4.57;2.13;;;3.20;99.90;;;;;;4998268;28;20587;-71
2021/12/26 06:44:42;;;;;;;2.55;2.35;;;3.10;99.90;;;;;;4995123;28;20231;-72
2021/12/26 06:47:13;;;;;;;2.28;2.17;;;3.20;99.90;;;;;;4987041;28;20323;-71
2021/12/26 06:49:46;;;;;;;3.10;2.33;;;3.30;99.90;;;;;;4993927;28;20223;-71
2021/12/26 06:52:17;;;;;;;2.50;2.30;;;3.30;99.90;;;;;;4992087;28;20219;-71
2021/12/26 06:54:48;;;;;;;2.72;2.53;;;3.30;99.90;;;;;;4994565;28;20235;-71
2021/12/26 06:57:19;;;;;;;4.15;2.90;;;3.30;99.90;;;;;;4995544;28;20230;-71
2021/12/26 06:59:52;;;;;;;2.30;2.20;;;3.20;99.90;;;;;;5005600;28;20601;-71
2021/12/26 07:02:22;;;;;;;2.50;1.80;;;3.10;99.90;;;;;;5010185;28;20584;-70
2021/12/26 07:04:53;;;;;;;2.53;1.95;;;3.00;99.90;;;;;;5004214;28;20267;-71
2021/12/26 07:07:24;;;;;;;2.22;2.00;;;2.90;99.90;;;;;;4993517;28;20216;-71
2021/12/26 07:09:55;;;;;;;4.55;2.15;;;2.70;99.90;;;;;;4997057;28;20220;-71
2021/12/26 07:12:26;;;;;;;2.10;1.70;;;2.70;99.90;;;;;;4990263;28;20224;-71
2021/12/26 07:14:58;;;;;;;2.38;2.05;;;2.70;99.90;;;;;;4991852;28;20226;-71
2021/12/26 07:17:29;;;;;;;1.65;1.48;;;2.70;99.90;;;;;;4993895;28;20230;-71
2021/12/26 07:20:00;;;;;;;1.70;1.60;;;2.80;99.90;;;;;;4990495;28;20216;-71
2021/12/26 07:22:31;;;;;;;2.10;1.77;;;2.70;99.90;;;;;;4997929;28;20219;-72
2021/12/26 07:25:02;;;;;;;2.05;1.85;;;2.70;99.90;;;;;;5008156;28;20262;-71
2021/12/26 07:27:33;;;;;;;2.38;1.63;;;2.70;99.90;;;;;;4992336;28;20236;-72
2021/12/26 07:30:07;;;;;;;2.05;1.70;;;2.70;99.90;;;;;;4989835;28;20287;-72
2021/12/26 07:32:37;;;;;;;2.13;2.00;;;2.60;99.90;;;;;;4989817;28;20224;-70
2021/12/26 07:35:11;;;;;;;1.95;1.75;;;2.50;99.90;;;;;;5002968;28;20214;-72
2021/12/26 07:37:42;;;;;;;1.75;1.65;;;2.40;99.90;;;;;;4994550;28;20245;-71
2021/12/26 07:40:14;;;;;;;2.08;1.70;;;2.30;99.90;;;;;;5000376;28;20228;-71
2021/12/26 07:42:45;;;;;;;3.05;1.85;;;2.30;99.90;;;;;;4990653;28;20227;-73
2021/12/26 07:45:18;;;;;;;1.55;1.40;;;2.30;99.90;;;;;;4996935;28;20233;-72
2021/12/26 07:47:49;;;;;;;1.67;0.68;;;2.30;99.90;;;;;;5006689;28;20215;-71
2021/12/26 07:50:20;;;;;;;1.52;1.10;;;2.30;99.90;;;;;;5008749;28;20568;-72
2021/12/26 07:52:52;;;;;;;2.35;1.35;;;2.30;99.90;;;;;;5006467;28;20227;-72
2021/12/26 07:55:23;;;;;;;2.40;1.60;;;2.30;99.90;;;;;;5007782;28;20738;-72
2021/12/26 07:57:54;;;;;;;3.08;1.00;;;2.30;99.90;;;;;;5008321;28;20661;-71
2021/12/26 08:00:27;;;;;;;1.17;0.90;;;2.20;99.90;;;;;;4992492;28;20219;-71
2021/12/26 08:02:59;;;;;;;1.42;1.00;;;2.20;99.90;;;;;;4989559;28;20226;-71
2021/12/26 08:05:30;;;;;;;1.10;0.98;;;2.20;99.90;;;;;;5006958;28;20234;-72
2021/12/26 08:08:01;;;;;;;0.80;0.75;;;2.20;99.90;;;;;;5006951;28;20592;-71
2021/12/26 08:10:32;;;;;;;1.52;0.93;;;2.30;99.90;;;;;;4994695;28;20215;-72
2021/12/26 08:13:03;;;;;;;0.85;0.70;;;2.30;99.90;;;;;;4999340;28;20226;-71
2021/12/26 08:15:35;;;;;;;2.05;0.77;;;2.20;99.90;;;;;;4995401;28;20224;-72
2021/12/26 08:18:06;;;;;;;1.65;0.73;;;2.30;99.90;;;;;;5001524;28;20229;-72
2021/12/26 08:20:37;;;;;;;1.20;0.57;;;2.30;99.90;;;;;;5005261;28;20226;-71
2021/12/26 08:23:08;;;;;;;3.60;0.90;;;2.30;99.90;;;;;;4995757;28;20223;-70
2021/12/26 08:25:39;;;;;;;0.93;0.60;;;2.20;99.90;;;;;;4994881;28;20674;-71
2021/12/26 08:28:10;;;;;;;0.60;0.50;;;2.20;99.90;;;;;;4989671;28;21015;-70
2021/12/26 08:30:43;;;;;;;0.68;0.68;;;2.20;99.90;;;;;;4997174;28;20215;-71
2021/12/26 08:33:15;;;;;;;1.38;0.73;;;2.10;99.90;;;;;;4997180;28;20530;-71
2021/12/26 08:35:49;;;;;;;0.90;0.90;;;2.10;99.90;;;;;;4999097;28;20237;-71
2021/12/26 08:38:21;;;;;;;0.52;0.52;;;2.00;99.90;;;;;;4998898;28;20219;-73
2021/12/26 08:40:54;;;;;;;2.72;1.13;;;2.00;99.90;;;;;;5002533;28;20211;-71
2021/12/26 08:43:25;;;;;;;1.08;1.05;;;2.00;99.90;;;;;;4989300;28;20215;-72
2021/12/26 08:45:57;;;;;;;1.30;0.70;;;2.00;99.90;;;;;;5006862;28;20231;-72
2021/12/26 08:48:29;;;;;;;0.90;0.50;;;2.00;99.90;;;;;;5006381;28;20341;-72
2021/12/26 08:51:00;;;;;;;3.58;0.80;;;2.00;99.90;;;;;;4992378;28;20226;-71
2021/12/26 08:53:31;;;;;;;2.88;0.65;;;2.10;99.90;;;;;;5005446;28;20241;-72
2021/12/26 08:56:03;;;;;;;1.23;0.60;;;2.00;99.90;;;;;;5005646;28;20322;-72
2021/12/26 08:58:34;;;;;;;1.85;1.00;;;2.00;99.90;;;;;;5007046;28;20245;-70
2021/12/26 09:01:07;;;;;;;1.02;0.60;;;2.00;99.90;;;;;;5000663;28;20219;-71
2021/12/26 09:03:38;;;;;;;0.50;0.50;;;1.90;99.90;;;;;;5000912;28;20226;-71
2021/12/26 09:06:09;;;;;;;0.70;0.55;;;1.90;99.90;;;;;;4997374;28;20246;-73
2021/12/26 09:08:40;;;;;;;2.58;1.00;;;1.80;99.90;;;;;;5000731;28;20231;-71
2021/12/26 09:11:11;;;;;;;0.50;0.50;;;1.80;99.90;;;;;;5011590;28;20322;-72
2021/12/26 09:13:42;;;;;;;0.40;0.40;;;1.70;99.90;;;;;;4999397;28;20251;-73
2021/12/26 09:16:15;;;;;;;0.40;0.40;;;1.70;99.90;;;;;;5001084;28;20211;-72
2021/12/26 09:18:46;;;;;;;3.70;0.75;;;1.70;99.90;;;;;;5005396;28;20307;-71
2021/12/26 09:21:17;;;;;;;0.65;0.40;;;1.60;99.90;;;;;;5004228;28;20591;-71
2021/12/26 09:23:48;;;;;;;1.15;0.40;;;1.60;99.90;;;;;;5002997;28;20223;-73
2021/12/26 09:26:19;;;;;;;0.90;0.45;;;1.60;99.90;;;;;;5014200;28;20230;-72
2021/12/26 09:28:50;;;;;;;1.58;0.38;;;1.50;99.90;;;;;;5003260;28;20219;-72
2021/12/26 09:31:22;;;;;;;0.47;0.47;;;1.50;99.90;;;;;;5007807;28;20212;-73
2021/12/26 09:33:54;;;;;;;2.25;0.68;;;1.50;99.90;;;;;;5003878;28;20226;-71
2021/12/26 09:36:25;;;;;;;1.83;1.00;;;1.50;99.90;;;;;;5011831;28;20218;-72
2021/12/26 09:38:55;;;;;;;0.68;0.45;;;1.40;99.90;;;;;;5007404;28;20215;-71
2021/12/26 09:41:26;;;;;;;0.35;0.35;;;1.50;99.90;;;;;;5012380;28;20702;-70
2021/12/26 09:43:57;;;;;;;0.63;0.63;;;1.40;99.90;;;;;;5010564;28;20233;-71
2021/12/26 09:46:33;;;;;;;5.18;0.73;;;1.50;99.90;;;;;;5008022;28;20249;-71
2021/12/26 09:49:05;;;;;;;1.30;0.30;;;1.50;99.90;;;;;;5008446;28;20215;-71
2021/12/26 09:51:36;;;;;;;2.05;0.60;;;1.40;99.90;;;;;;5002012;28;20672;-71
2021/12/26 09:54:07;;;;;;;0.40;0.40;;;1.40;99.90;;;;;;5009399;28;20219;-71
2021/12/26 09:56:38;;;;;;;0.40;0.30;;;1.30;99.90;;;;;;5010820;28;20223;-72
2021/12/26 09:59:15;;;;;;;0.65;0.65;;;1.30;99.90;;;;;;5012769;28;20254;-70
2021/12/26 10:01:51;;;;;;;0.57;0.50;;;1.30;99.90;;;;;;5001496;28;20225;-71
2021/12/26 10:04:43;;;;;;;1.35;0.40;;;1.20;99.90;;;;;;5005166;28;20284;-70
2021/12/26 10:07:16;;;;;;;2.30;0.30;;;1.20;99.90;;;;;;5012531;28;20326;-71
2021/12/26 10:09:50;;;;;;;3.10;0.47;;;1.20;99.90;;;;;;5003129;28;20219;-70
2021/12/26 10:12:22;;;;;;;0.50;0.40;;;1.20;99.90;;;;;;5010612;28;20567;-71
2021/12/26 10:14:55;;;;;;;0.70;0.40;;;1.10;99.90;;;;;;5008155;28;20592;-71
2021/12/26 10:17:29;;;;;;;1.95;0.88;;;1.10;99.90;;;;;;5003363;28;20211;-70
2021/12/26 10:20:05;;;;;;;0.75;0.38;;;1.10;99.90;;;;;;5009875;28;20218;-71
2021/12/26 10:22:36;;;;;;;0.60;0.40;;;1.10;99.90;;;;;;5006838;28;20219;-71
2021/12/26 10:25:15;;;;;;;1.15;0.38;;;1.00;99.90;;;;;;5002709;28;20726;-70
2021/12/26 10:27:48;;;;;;;0.93;0.40;;;1.00;99.90;;;;;;4999992;28;20235;-71
2021/12/26 10:30:22;;;;;;;1.40;0.60;;;1.00;99.90;;;;;;4990695;28;20220;-70
2021/12/26 10:33:00;;;;;;;1.42;0.55;;;1.00;99.90;;;;;;4998733;28;20672;-70
2021/12/26 10:35:31;;;;;;;4.25;0.70;;;0.90;99.90;;;;;;4988330;28;20667;-71
2021/12/26 10:38:01;;;;;;;0.70;0.50;;;0.90;99.90;;;;;;5001087;28;20219;-71
2021/12/26 10:40:33;;;;;;;0.80;0.40;;;0.90;99.90;;;;;;5009119;28;20286;-71
2021/12/26 10:43:04;;;;;;;0.75;0.60;;;0.90;99.90;;;;;;5007356;28;20234;-71
2021/12/26 10:45:36;;;;;;;2.05;0.60;;;0.90;99.90;;;;;;5011420;28;20580;-72
2021/12/26 10:48:10;;;;;;;0.70;0.70;;;0.90;99.90;;;;;;5008389;28;20233;-70
2021/12/26 10:50:42;;;;;;;2.55;0.50;;;0.90;99.90;;;;;;4997243;28;20223;-71
2021/12/26 10:53:14;;;;;;;0.50;0.47;;;0.90;99.90;;;;;;4997960;28;20235;-72
2021/12/26 10:55:51;;;;;;;0.68;0.40;;;0.90;99.90;;;;;;5001846;28;20215;-72
2021/12/26 10:58:24;;;;;;;1.15;0.43;;;0.90;99.90;;;;;;5010386;28;20222;-72
2021/12/26 11:00:56;;;;;;;1.05;0.50;;;0.90;99.90;;;;;;5003249;28;20231;-71
2021/12/26 11:03:30;;;;;;;0.57;0.50;;;0.90;99.90;;;;;;4992113;28;20758;-73
2021/12/26 11:06:06;;;;;;;0.77;0.77;;;1.00;99.90;;;;;;5008038;28;20237;-72
2021/12/26 11:08:41;;;;;;;0.70;0.45;;;1.10;99.90;;;;;;4993300;28;20218;-72
2021/12/26 11:11:15;;;;;;;1.35;0.40;;;1.10;99.90;;;;;;4991387;28;20683;-72
2021/12/26 11:13:47;;;;;;;2.45;1.23;;;1.10;99.90;;;;;;4993294;28;20598;-72
2021/12/26 11:16:18;;;;;;;0.60;0.60;;;1.20;99.90;;;;;;4994582;28;20237;-73
2021/12/26 11:18:56;;;;;;;0.70;0.57;;;1.30;99.90;;;;;;4997382;28;20220;-72
2021/12/26 11:21:29;;;;;;;0.90;0.50;;;1.40;99.90;;;;;;5002039;28;20223;-71
2021/12/26 11:24:00;;;;;;;0.60;0.40;;;1.40;99.90;;;;;;4998264;28;20283;-72
2021/12/26 11:26:31;;;;;;;1.60;0.60;;;1.50;99.90;;;;;;5009330;28;20225;-72
2021/12/26 11:29:02;;;;;;;0.55;0.55;;;1.50;99.90;;;;;;5009394;28;20227;-71
2021/12/26 11:31:33;;;;;;;1.00;0.45;;;1.60;99.90;;;;;;5003169;28;20607;-72
2021/12/26 11:34:06;;;;;;;0.60;0.50;;;1.60;99.90;;;;;;4992468;28;20241;-71
2021/12/26 11:36:38;;;;;;;0.52;0.52;;;1.60;99.90;;;;;;4989155;28;20588;-72
2021/12/26 11:39:09;;;;;;;0.70;0.70;;;1.60;99.90;;;;;;4990785;28;20216;-71
2021/12/26 11:41:48;;;;;;;1.40;0.80;;;1.60;99.90;;;;;;5006172;28;20258;-72
2021/12/26 11:44:38;;;;;;;1.70;0.75;;;1.70;99.90;;;;;;5003240;28;20211;-72
2021/12/26 11:47:39;;;;;;;0.85;0.60;;;1.70;99.90;;;;;;4996999;28;20246;-71
2021/12/26 11:50:32;;;;;;;0.85;0.50;;;1.70;99.90;;;;;;4998872;28;20241;-69
2021/12/26 11:53:24;;;;;;;1.30;0.60;;;1.60;99.90;;;;;;4991067;28;20234;-70
2021/12/26 11:56:05;;;;;;;1.13;0.80;;;1.70;99.90;;;;;;4949979;28;20706;-73
2021/12/26 11:58:51;;;;;;;1.35;0.50;;;1.70;99.90;;;;;;5009879;28;20219;-70
2021/12/26 12:01:24;;;;;;;0.70;0.70;;;1.70;99.90;;;;;;4997891;28;20215;-69
2021/12/26 12:04:12;;;;;;;1.92;0.90;;;1.70;99.90;;;;;;4999805;28;20226;-69
2021/12/26 12:06:46;;;;;;;0.95;0.55;;;1.70;99.90;;;;;;5009207;28;20227;-70
2021/12/26 12:09:29;;;;;;;1.02;0.90;;;1.60;99.90;;;;;;5006992;28;20612;-70
2021/12/26 12:12:09;;;;;;;0.60;0.60;;;1.50;99.90;;;;;;5001481;28;20560;-69
2021/12/26 12:14:57;;;;;;;1.40;0.60;;;1.50;99.90;;;;;;5007334;28;20223;-69
2021/12/26 12:17:30;;;;;;;2.50;0.85;;;1.40;99.90;;;;;;5005919;28;20225;-69
2021/12/26 12:20:26;;;;;;;1.15;0.68;;;1.40;99.90;;;;;;5005896;28;20215;-72
2021/12/26 12:23:16;;;;;;;3.83;1.45;;;1.30;99.90;;;;;;4988544;28;20283;-72
2021/12/26 12:25:52;;;;;;;2.00;0.70;;;1.30;99.90;;;;;;4993482;28;20261;-70
2021/12/26 12:28:26;;;;;;;1.10;1.00;;;1.20;99.90;;;;;;5003798;28;20239;-74
2021/12/26 12:31:00;;;;;;;0.47;0.47;;;1.20;99.90;;;;;;5001653;28;20223;-73
2021/12/26 12:33:32;;;;;;;1.92;1.00;;;1.30;99.90;;;;;;4994661;28;20505;-72
2021/12/26 12:36:08;;;;;;;1.58;0.50;;;1.30;99.90;;;;;;4997936;28;20599;-71
2021/12/26 12:38:49;;;;;;;1.30;0.40;;;1.30;99.90;;;;;;4985665;28;20602;-70
2021/12/26 12:41:39;;;;;;;1.73;0.40;;;1.30;99.90;;;;;;5001986;28;20223;-71
2021/12/26 12:44:31;;;;;;;0.82;0.40;;;1.20;99.90;;;;;;4994612;28;20275;-70
2021/12/26 12:47:06;;;;;;;0.82;0.50;;;1.20;99.90;;;;;;4995007;28;20218;-70
2021/12/26 12:49:46;;;;;;;0.40;0.30;;;1.20;99.90;;;;;;4999250;28;20228;-71
2021/12/26 12:52:46;;;;;;;0.32;0.20;;;1.20;99.90;;;;;;4989757;28;20227;-70
2021/12/26 12:55:22;;;;;;;0.52;0.52;;;1.10;99.90;;;;;;5000335;28;20298;-70
2021/12/26 12:57:55;;;;;;;0.80;0.30;;;1.20;99.90;;;;;;4988408;28;20219;-72
2021/12/26 13:00:42;;;;;;;1.20;0.40;;;1.20;99.90;;;;;;4994130;28;20220;-70
2021/12/26 13:03:21;;;;;;;1.42;0.60;;;1.20;99.90;;;;;;4995863;28;20215;-71
2021/12/26 13:05:53;;;;;;;0.60;0.60;;;1.20;99.90;;;;;;4997282;28;20241;-71
2021/12/26 13:08:25;;;;;;;0.93;0.60;;;1.20;99.90;;;;;;4989412;28;20286;-71
2021/12/26 13:10:58;;;;;;;0.95;0.30;;;1.20;99.90;;;;;;5005125;28;20223;-70
2021/12/26 13:13:29;;;;;;;0.82;0.45;;;1.20;99.90;;;;;;5009986;28;20689;-70
2021/12/26 13:16:01;;;;;;;0.90;0.25;;;1.20;99.90;;;;;;4992585;28;20789;-70
2021/12/26 13:18:35;;;;;;;0.40;0.40;;;1.20;99.90;;;;;;4995623;28;20224;-69
2021/12/26 13:21:08;;;;;;;0.70;0.40;;;1.20;99.90;;;;;;4999903;28;20224;-70
2021/12/26 13:23:43;;;;;;;0.77;0.30;;;1.20;99.90;;;;;;5000945;28;20219;-70
2021/12/26 13:26:15;;;;;;;0.60;0.30;;;1.20;99.90;;;;;;4996474;28;20227;-70
2021/12/26 13:28:46;;;;;;;0.88;0.30;;;1.20;99.90;;;;;;4995214;28;20234;-71
2021/12/26 13:31:20;;;;;;;0.60;0.60;;;1.10;99.90;;;;;;4996866;28;20588;-69
2021/12/26 13:33:55;;;;;;;2.17;0.65;;;1.10;99.90;;;;;;5001858;28;20219;-70
2021/12/26 13:36:32;;;;;;;0.40;0.40;;;1.10;99.90;;;;;;4989293;28;20222;-71
2021/12/26 13:39:05;;;;;;;1.10;0.40;;;1.00;99.90;;;;;;4994664;28;20578;-71
2021/12/26 13:41:44;;;;;;;1.83;0.57;;;1.00;99.90;;;;;;4989701;28;20223;-71
2021/12/26 13:44:16;;;;;;;0.70;0.60;;;1.00;99.90;;;;;;4995767;28;20223;-71
2021/12/26 13:46:48;;;;;;;1.00;0.82;;;1.00;99.90;;;;;;5006721;28;20222;-71
2021/12/26 13:49:20;;;;;;;0.75;0.73;;;0.80;99.90;;;;;;4998211;28;20236;-73
2021/12/26 13:51:56;;;;;;;0.90;0.70;;;0.90;99.90;;;;;;4987814;28;20234;-72
2021/12/26 13:54:29;;;;;;;0.70;0.60;;;0.90;99.90;;;;;;5005360;28;20314;-72
2021/12/26 13:57:04;;;;;;;0.80;0.65;;;0.90;99.90;;;;;;5005415;28;20224;-71
2021/12/26 13:59:38;;;;;;;0.50;0.47;;;1.00;99.90;;;;;;5002904;28;20241;-70
2021/12/26 14:02:11;;;;;;;4.43;1.20;;;0.90;99.90;;;;;;4991445;28;20234;-71
2021/12/26 14:04:45;;;;;;;1.40;0.50;;;0.90;99.90;;;;;;5004106;28;20227;-71
2021/12/26 14:07:18;;;;;;;0.30;0.28;;;0.90;99.90;;;;;;5012227;28;20214;-69
2021/12/26 14:09:51;;;;;;;0.50;0.30;;;0.90;99.90;;;;;;5001252;28;20246;-70
2021/12/26 14:12:39;;;;;;;0.95;0.80;;;0.80;99.90;;;;;;4991952;28;20540;-73
2021/12/26 14:15:24;;;;;;;0.75;0.40;;;0.80;99.90;;;;;;4991946;28;20219;-70
2021/12/26 14:18:01;;;;;;;0.30;0.30;;;0.90;99.90;;;;;;5006388;28;20215;-71
2021/12/26 14:20:45;;;;;;;0.30;0.30;;;0.90;99.90;;;;;;5006457;28;20221;-71
2021/12/26 14:23:19;;;;;;;0.50;0.50;;;1.00;99.90;;;;;;4999027;28;20229;-70
2021/12/26 14:25:52;;;;;;;1.25;0.40;;;1.00;99.90;;;;;;4991489;28;20242;-71
2021/12/26 14:28:26;;;;;;;0.20;0.20;;;1.00;99.90;;;;;;5002319;28;20242;-70
2021/12/26 14:30:59;;;;;;;4.00;0.75;;;1.00;99.90;;;;;;4991692;28;20624;-70
2021/12/26 14:44:48;;;;;;;0.77;0.77;;;1.20;99.90;;;;;;5002241;28;20677;-71
2021/12/26 14:47:25;;;;;;;0.60;0.60;;;1.10;99.90;;;;;;5007400;28;20226;-70
2021/12/26 14:49:58;;;;;;;0.60;0.60;;;1.20;99.90;;;;;;4991333;28;20235;-70
2021/12/26 14:52:31;;;;;;;0.60;0.55;;;1.20;99.90;;;;;;5007250;28;20233;-70